createdAt,value
2023-02-06T00:00:47.027Z,82.23
2023-02-06T00:03:13.970Z,82.36
2023-02-06T00:05:40.672Z,82.70
2023-02-06T00:08:07.344Z,83.56
2023-02-06T00:10:34.537Z,83.79
2023-02-06T00:13:01.139Z,84.23
2023-02-06T00:15:35.634Z,82.95
2023-02-06T00:18:02.479Z,80.97
2023-02-06T00:20:29.068Z,81.44
2023-02-06T00:22:55.649Z,82.54
2023-02-06T00:25:22.205Z,82.31
2023-02-06T00:27:48.791Z,82.19
2023-02-06T00:30:15.481Z,82.87
2023-02-06T00:32:42.135Z,81.97
2023-02-06T00:35:08.767Z,81.22
2023-02-06T00:37:35.396Z,82.29
2023-02-06T00:40:05.035Z,81.81
2023-02-06T00:42:31.548Z,82.29
2023-02-06T00:44:58.078Z,81.84
2023-02-06T00:47:24.659Z,81.80
2023-02-06T00:49:51.271Z,82.63
2023-02-06T00:52:17.830Z,82.43
2023-02-06T00:54:44.363Z,82.48
2023-02-06T00:57:11.034Z,82.43
2023-02-06T00:59:37.628Z,82.00
2023-02-06T01:02:04.311Z,82.00
2023-02-06T01:04:30.872Z,81.55
2023-02-06T01:06:57.483Z,82.48
2023-02-06T01:09:24.053Z,82.43
2023-02-06T01:11:50.596Z,83.97
2023-02-06T01:14:17.293Z,84.74
2023-02-06T01:16:43.855Z,83.88
2023-02-06T01:19:10.654Z,83.76
2023-02-06T01:21:37.439Z,84.29
2023-02-06T01:24:04.219Z,84.37
2023-02-06T01:26:30.784Z,84.66
2023-02-06T01:28:57.432Z,85.04
2023-02-06T01:31:28.275Z,86.34
2023-02-06T01:33:56.603Z,85.89
2023-02-06T01:36:23.771Z,84.76
2023-02-06T01:38:50.997Z,85.56
2023-02-06T01:41:19.585Z,84.42
2023-02-06T01:44:07.640Z,85.18
2023-02-06T01:46:34.543Z,83.90
2023-02-06T01:49:02.070Z,84.92
2023-02-06T01:51:30.521Z,84.09
2023-02-06T01:54:02.235Z,85.32
2023-02-06T01:56:34.115Z,86.11
2023-02-06T01:59:03.055Z,85.62
2023-02-06T02:01:30.229Z,84.99
2023-02-06T02:04:04.369Z,85.77
2023-02-06T02:06:31.358Z,85.17
2023-02-06T02:08:58.859Z,84.77
2023-02-06T02:11:32.863Z,84.83
2023-02-06T02:14:00.851Z,84.74
2023-02-06T02:16:55.852Z,83.42
2023-02-06T02:19:34.477Z,82.74
2023-02-06T02:22:19.374Z,83.86
2023-02-06T02:25:17.626Z,84.45
2023-02-06T02:28:21.845Z,84.41
2023-02-06T02:30:54.591Z,84.64
2023-02-06T02:33:58.543Z,85.04
2023-02-06T02:36:49.830Z,84.75
2023-02-06T02:39:21.702Z,84.77
2023-02-06T02:42:16.998Z,85.10
2023-02-06T02:44:50.655Z,84.65
2023-02-06T02:47:21.437Z,85.69
2023-02-06T02:49:49.098Z,86.54
2023-02-06T02:52:15.823Z,86.64
2023-02-06T02:54:42.463Z,85.98
2023-02-06T02:57:14.753Z,86.22
2023-02-06T02:59:45.475Z,86.70
2023-02-06T03:02:21.624Z,86.24
2023-02-06T03:04:53.587Z,86.85
2023-02-06T03:07:38.445Z,86.49
2023-02-06T03:10:14.109Z,85.69
2023-02-06T03:13:02.951Z,85.43
2023-02-06T03:15:40.038Z,85.72
2023-02-06T03:18:19.577Z,86.24
2023-02-06T03:20:47.975Z,86.49
2023-02-06T03:23:19.428Z,85.16
2023-02-06T03:25:50.895Z,84.69
2023-02-06T03:28:23.702Z,84.54
2023-02-06T03:30:55.183Z,84.44
2023-02-06T03:33:26.927Z,85.20
2023-02-06T03:35:55.223Z,84.04
2023-02-06T03:38:24.785Z,83.02
2023-02-06T03:40:53.409Z,83.43
2023-02-06T03:43:22.811Z,82.99
2023-02-06T03:45:56.301Z,83.02
2023-02-06T03:48:37.263Z,83.50
2023-02-06T03:51:10.092Z,83.41
2023-02-06T03:53:38.794Z,83.44
2023-02-06T03:56:19.390Z,82.55
2023-02-06T03:58:45.991Z,83.12
2023-02-06T04:01:13.665Z,83.20
2023-02-06T04:03:40.795Z,83.21
2023-02-06T04:06:07.660Z,84.97
2023-02-06T04:08:34.216Z,83.74
2023-02-06T04:11:00.764Z,84.54
2023-02-06T04:13:27.318Z,84.14
2023-02-06T04:15:56.210Z,83.75
2023-02-06T04:18:24.052Z,84.26
2023-02-06T04:20:52.401Z,83.46
2023-02-06T04:23:19.981Z,85.13
2023-02-06T04:25:46.882Z,84.20
2023-02-06T04:28:14.078Z,84.34
2023-02-06T04:30:40.823Z,84.46
2023-02-06T04:33:07.515Z,84.62
2023-02-06T04:35:34.323Z,84.29
2023-02-06T04:38:01.044Z,84.82
2023-02-06T04:40:27.663Z,84.11
2023-02-06T04:42:54.238Z,84.43
2023-02-06T04:45:20.820Z,84.44
2023-02-06T04:47:50.178Z,84.25
2023-02-06T04:50:17.799Z,84.37
2023-02-06T04:52:44.466Z,83.61
2023-02-06T04:55:11.119Z,83.56
2023-02-06T04:57:37.916Z,83.68
2023-02-06T05:00:06.564Z,83.80
2023-02-06T05:02:39.632Z,84.58
2023-02-06T05:05:08.182Z,82.77
2023-02-06T05:07:35.608Z,82.93
2023-02-06T05:10:02.481Z,82.75
2023-02-06T05:12:29.178Z,82.52
2023-02-06T05:14:55.938Z,81.73
2023-02-06T05:17:22.487Z,81.75
2023-02-06T05:19:49.066Z,81.72
2023-02-06T05:22:15.638Z,82.39
2023-02-06T05:24:42.222Z,82.14
2023-02-06T05:27:08.805Z,81.81
2023-02-06T05:29:35.337Z,83.12
2023-02-06T05:32:01.926Z,81.48
2023-02-06T05:34:28.500Z,82.15
2023-02-06T05:36:55.064Z,82.64
2023-02-06T05:39:22.033Z,81.79
2023-02-06T05:41:48.620Z,81.42
2023-02-06T05:44:15.190Z,81.79
2023-02-06T05:46:41.871Z,82.12
2023-02-06T05:49:08.440Z,81.33
2023-02-06T05:51:35.127Z,82.90
2023-02-06T05:54:01.760Z,83.05
2023-02-06T05:56:28.293Z,81.75
2023-02-06T05:58:54.888Z,82.58
2023-02-06T06:01:21.489Z,82.34
2023-02-06T06:03:48.094Z,81.88
2023-02-06T06:06:14.830Z,82.59
2023-02-06T06:08:41.412Z,80.98
2023-02-06T06:11:08.219Z,81.46
2023-02-06T06:13:34.856Z,81.39
2023-02-06T06:16:01.432Z,82.37
2023-02-06T06:18:28.088Z,81.86
2023-02-06T06:20:54.730Z,82.64
2023-02-06T06:23:21.332Z,82.27
2023-02-06T06:25:48.831Z,82.42
2023-02-06T06:28:15.442Z,81.73
2023-02-06T06:30:42.335Z,81.64
2023-02-06T06:33:08.864Z,82.78
2023-02-06T06:35:35.708Z,81.72
2023-02-06T06:38:02.385Z,81.23
2023-02-06T06:40:29.067Z,81.51
2023-02-06T06:42:55.633Z,82.04
2023-02-06T06:45:22.325Z,81.81
2023-02-06T06:47:48.932Z,82.51
2023-02-06T06:50:15.664Z,82.52
2023-02-06T06:52:42.273Z,82.09
2023-02-06T06:55:08.891Z,81.74
2023-02-06T06:57:35.517Z,82.25
2023-02-06T07:00:02.567Z,82.66
2023-02-06T07:02:30.339Z,82.60
2023-02-06T07:04:57.296Z,81.95
2023-02-06T07:07:23.977Z,82.68
2023-02-06T07:09:50.575Z,81.92
2023-02-06T07:12:17.925Z,81.09
2023-02-06T07:14:44.610Z,82.35
2023-02-06T07:17:11.202Z,81.40
2023-02-06T07:19:37.763Z,82.57
2023-02-06T07:22:04.466Z,81.04
2023-02-06T07:24:31.785Z,80.89
2023-02-06T07:27:00.993Z,80.73
2023-02-06T07:29:28.187Z,81.31
2023-02-06T07:31:55.025Z,81.35
2023-02-06T07:34:21.645Z,81.19
2023-02-06T07:36:48.243Z,80.89
2023-02-06T07:39:14.834Z,80.63
2023-02-06T07:41:41.393Z,81.14
2023-02-06T07:44:08.125Z,81.55
2023-02-06T07:46:34.854Z,80.46
2023-02-06T07:49:01.476Z,79.87
2023-02-06T07:51:28.230Z,79.87
2023-02-06T07:53:55.200Z,79.80
2023-02-06T07:56:26.668Z,80.47
2023-02-06T07:58:54.994Z,79.47
2023-02-06T08:01:22.989Z,79.30
2023-02-06T08:03:53.912Z,78.92
2023-02-06T08:06:24.247Z,79.12
2023-02-06T08:08:51.925Z,78.01
2023-02-06T08:11:20.541Z,78.88
2023-02-06T08:13:48.321Z,79.03
2023-02-06T08:16:19.556Z,78.73
2023-02-06T08:18:46.377Z,78.72
2023-02-06T08:21:15.965Z,78.65
2023-02-06T08:23:43.217Z,79.40
2023-02-06T08:26:18.960Z,78.37
2023-02-06T08:28:47.198Z,78.86
2023-02-06T08:31:20.856Z,79.88
2023-02-06T08:33:48.206Z,78.72
2023-02-06T08:36:15.713Z,78.60
2023-02-06T08:38:42.499Z,79.32
2023-02-06T08:41:22.179Z,79.63
2023-02-06T08:43:50.688Z,79.09
2023-02-06T08:46:18.902Z,79.27
2023-02-06T08:48:46.137Z,79.07
2023-02-06T08:51:13.500Z,79.07
2023-02-06T08:53:40.155Z,78.50
2023-02-06T08:56:12.128Z,77.31
2023-02-06T08:58:39.711Z,78.15
2023-02-06T09:01:13.787Z,77.82
2023-02-06T09:03:41.832Z,77.92
2023-02-06T09:06:10.286Z,77.16
2023-02-06T09:08:38.592Z,77.80
2023-02-06T09:11:16.158Z,77.25
2023-02-06T09:13:44.368Z,77.64
2023-02-06T09:16:11.981Z,77.83
2023-02-06T09:18:38.872Z,77.12
2023-02-06T09:21:11.417Z,76.44
2023-02-06T09:23:43.805Z,75.74
2023-02-06T09:26:15.414Z,76.84
2023-02-06T09:28:42.488Z,76.83
2023-02-06T09:31:09.875Z,80.31
2023-02-06T09:33:40.158Z,78.35
2023-02-06T09:36:11.800Z,76.99
2023-02-06T09:38:43.755Z,77.63
2023-02-06T09:41:47.566Z,78.73
2023-02-06T09:44:27.183Z,77.98
2023-02-06T09:47:05.099Z,78.60
2023-02-06T09:49:46.515Z,76.86
2023-02-06T09:52:19.142Z,77.05
2023-02-06T09:55:12.842Z,78.85
2023-02-06T09:57:59.612Z,77.25
2023-02-06T10:00:44.375Z,77.20
2023-02-06T10:03:23.103Z,77.46
2023-02-06T10:05:58.989Z,77.26
2023-02-06T10:08:28.448Z,76.89
2023-02-06T10:11:02.369Z,77.00
2023-02-06T10:13:41.110Z,77.55
2023-02-06T10:16:37.001Z,79.55
2023-02-06T10:19:19.181Z,78.21
2023-02-06T10:22:00.115Z,78.13
2023-02-06T10:24:41.421Z,78.09
2023-02-06T10:27:13.575Z,79.25
2023-02-06T10:29:42.656Z,77.63
2023-02-06T10:32:46.316Z,79.07
2023-02-06T10:35:21.847Z,79.13
2023-02-06T10:38:15.863Z,79.46
2023-02-06T10:41:01.179Z,77.06
2023-02-06T10:43:35.370Z,76.31
2023-02-06T10:46:19.904Z,76.86
2023-02-06T10:49:02.603Z,75.74
2023-02-06T10:51:33.789Z,77.45
2023-02-06T10:54:04.258Z,79.55
2023-02-06T10:56:36.851Z,78.99
2023-02-06T10:59:25.048Z,81.08
2023-02-06T11:02:01.326Z,80.09
2023-02-06T11:04:37.566Z,80.73
2023-02-06T11:07:08.971Z,80.18
2023-02-06T11:09:36.017Z,81.44
2023-02-06T11:12:03.576Z,81.30
2023-02-06T11:14:37.448Z,81.12
2023-02-06T11:17:04.010Z,80.33
2023-02-06T11:19:44.472Z,81.42
2023-02-06T11:22:12.301Z,81.18
2023-02-06T11:24:57.601Z,81.05
2023-02-06T11:27:24.272Z,79.95
2023-02-06T11:29:52.273Z,81.61
2023-02-06T11:32:31.104Z,81.78
2023-02-06T11:35:01.693Z,81.98
2023-02-06T11:37:32.565Z,82.58
2023-02-06T11:40:17.494Z,83.57
2023-02-06T11:42:45.671Z,82.24
2023-02-06T11:45:40.913Z,81.99
2023-02-06T11:48:31.537Z,81.11
2023-02-06T11:50:58.170Z,83.02
2023-02-06T11:53:24.709Z,81.50
2023-02-06T11:56:18.845Z,81.64
2023-02-06T11:58:45.997Z,81.78
2023-02-06T12:01:22.636Z,83.15
2023-02-06T12:03:58.874Z,81.56
2023-02-06T12:06:30.802Z,80.36
2023-02-06T12:09:00.331Z,81.09
2023-02-06T12:11:51.272Z,81.11
2023-02-06T12:14:29.577Z,81.82
2023-02-06T12:16:57.366Z,80.97
2023-02-06T12:19:33.696Z,77.63
2023-02-06T12:22:22.624Z,78.71
2023-02-06T12:24:52.593Z,76.45
2023-02-06T12:27:39.065Z,79.31
2023-02-06T12:30:31.085Z,77.81
2023-02-06T12:33:10.727Z,77.65
2023-02-06T12:35:46.116Z,75.44
2023-02-06T12:38:43.990Z,79.28
2023-02-06T12:41:36.749Z,79.42
2023-02-06T12:44:19.068Z,79.76
2023-02-06T12:46:50.015Z,78.19
2023-02-06T12:49:30.497Z,77.13
2023-02-06T12:52:11.916Z,79.17
2023-02-06T12:54:48.212Z,78.38
2023-02-06T12:57:20.010Z,77.35
2023-02-06T13:00:05.395Z,77.46
2023-02-06T13:03:09.757Z,78.02
2023-02-06T13:05:41.266Z,76.71
2023-02-06T13:08:16.168Z,77.44
2023-02-06T13:10:43.600Z,76.24
2023-02-06T13:13:32.973Z,76.31
2023-02-06T13:16:00.591Z,77.59
2023-02-06T13:18:50.682Z,76.80
2023-02-06T13:21:29.136Z,76.17
2023-02-06T13:24:01.775Z,76.99
2023-02-06T13:26:51.607Z,75.92
2023-02-06T13:29:28.832Z,76.43
2023-02-06T13:32:19.778Z,77.27
2023-02-06T13:34:49.648Z,76.98
2023-02-06T13:37:35.036Z,77.71
2023-02-06T13:40:23.414Z,75.91
2023-02-06T13:42:59.364Z,75.24
2023-02-06T13:45:28.074Z,75.83
2023-02-06T13:48:06.728Z,74.60
2023-02-06T13:50:53.525Z,75.22
2023-02-06T13:53:50.141Z,75.71
2023-02-06T13:56:52.190Z,73.28
2023-02-06T13:59:29.501Z,75.19
2023-02-06T14:01:56.412Z,74.23
2023-02-06T14:04:28.543Z,76.15
2023-02-06T14:07:08.957Z,76.05
2023-02-06T14:10:28.714Z,75.52
2023-02-06T14:13:02.040Z,75.95
2023-02-06T14:16:03.469Z,73.27
2023-02-06T14:18:53.356Z,73.51
2023-02-06T14:21:44.701Z,72.30
2023-02-06T14:24:27.655Z,72.07
2023-02-06T14:27:06.332Z,72.55
2023-02-06T14:29:48.105Z,72.09
2023-02-06T14:32:41.676Z,75.32
2023-02-06T14:35:26.543Z,72.30
2023-02-06T14:38:41.778Z,71.16
2023-02-06T14:41:09.480Z,73.98
2023-02-06T14:43:39.602Z,70.28
2023-02-06T14:46:13.105Z,71.72
2023-02-06T14:48:46.631Z,74.09
2023-02-06T14:51:28.921Z,72.60
2023-02-06T14:54:02.170Z,71.62
2023-02-06T14:56:36.610Z,73.56
2023-02-06T14:59:18.839Z,69.94
2023-02-06T15:01:48.575Z,69.97
2023-02-06T15:04:16.994Z,73.66
2023-02-06T15:06:45.027Z,74.79
2023-02-06T15:09:27.857Z,74.25
2023-02-06T15:11:57.908Z,74.94
2023-02-06T15:14:27.631Z,75.17
2023-02-06T15:16:59.165Z,76.21
2023-02-06T15:19:28.656Z,75.05
2023-02-06T15:22:02.426Z,77.79
2023-02-06T15:24:57.814Z,76.49
2023-02-06T15:27:36.863Z,76.03
2023-02-06T15:30:20.423Z,77.47
2023-02-06T15:32:52.989Z,78.88
2023-02-06T15:35:28.243Z,80.48
2023-02-06T15:37:55.405Z,81.23
2023-02-06T15:40:39.005Z,80.89
2023-02-06T15:43:06.730Z,82.65
2023-02-06T15:45:37.237Z,82.90
2023-02-06T15:48:21.110Z,82.28
2023-02-06T15:51:02.526Z,83.66
2023-02-06T15:53:38.951Z,84.46
2023-02-06T15:56:16.811Z,83.37
2023-02-06T15:58:43.416Z,85.34
2023-02-06T16:01:20.416Z,85.48
2023-02-06T16:03:52.138Z,86.96
2023-02-06T16:06:19.374Z,85.85
2023-02-06T16:08:52.674Z,86.65
2023-02-06T16:11:37.980Z,87.44
2023-02-06T16:14:05.713Z,87.65
2023-02-06T16:16:32.521Z,86.90
2023-02-06T16:18:59.404Z,86.14
2023-02-06T16:21:31.730Z,86.76
2023-02-06T16:24:06.193Z,84.90
2023-02-06T16:26:39.767Z,84.07
2023-02-06T16:29:09.105Z,80.32
2023-02-06T16:31:42.451Z,82.46
2023-02-06T16:34:34.517Z,77.41
2023-02-06T16:37:01.164Z,77.75
2023-02-06T16:39:27.730Z,75.86
2023-02-06T16:41:54.531Z,79.51
2023-02-06T16:44:21.612Z,81.47
2023-02-06T16:46:48.194Z,82.14
2023-02-06T16:49:23.663Z,79.04
2023-02-06T16:51:53.611Z,81.49
2023-02-06T16:54:24.672Z,79.03
2023-02-06T16:56:52.202Z,78.58
2023-02-06T16:59:18.835Z,78.24
2023-02-06T17:01:45.482Z,79.57
2023-02-06T17:04:12.130Z,78.30
2023-02-06T17:06:39.008Z,79.01
2023-02-06T17:09:09.156Z,80.47
2023-02-06T17:11:37.291Z,80.42
2023-02-06T17:14:04.484Z,80.36
2023-02-06T17:16:31.998Z,81.05
2023-02-06T17:18:58.667Z,80.62
2023-02-06T17:21:27.636Z,81.25
2023-02-06T17:23:54.301Z,79.46
2023-02-06T17:26:22.765Z,79.32
2023-02-06T17:28:49.892Z,79.58
2023-02-06T17:31:16.945Z,81.57
2023-02-06T17:33:43.758Z,80.71
2023-02-06T17:36:19.058Z,80.11
2023-02-06T17:38:45.700Z,80.33
2023-02-06T17:41:12.260Z,80.75
2023-02-06T17:43:38.898Z,82.72
2023-02-06T17:46:06.311Z,80.88
2023-02-06T17:48:36.723Z,82.78
2023-02-06T17:51:05.107Z,82.54
2023-02-06T17:53:31.678Z,83.96
2023-02-06T17:56:03.970Z,83.08
2023-02-06T17:58:30.561Z,82.86
2023-02-06T18:00:57.202Z,83.36
2023-02-06T18:03:23.859Z,83.75
2023-02-06T18:06:00.894Z,84.02
2023-02-06T18:08:28.642Z,85.14
2023-02-06T18:10:56.044Z,85.37
2023-02-06T18:13:24.460Z,84.71
2023-02-06T18:15:53.358Z,85.30
2023-02-06T18:18:20.035Z,85.62
2023-02-06T18:20:46.678Z,85.88
2023-02-06T18:23:13.859Z,84.90
2023-02-06T18:25:43.519Z,85.12
2023-02-06T18:28:13.937Z,85.48
2023-02-06T18:30:42.080Z,86.12
2023-02-06T18:33:11.297Z,87.38
2023-02-06T18:35:45.689Z,87.05
2023-02-06T18:38:14.235Z,86.21
2023-02-06T18:40:43.006Z,86.10
2023-02-06T18:43:09.661Z,85.80
2023-02-06T18:45:38.392Z,86.54
2023-02-06T18:48:09.117Z,87.10
2023-02-06T18:50:39.220Z,86.55
2023-02-06T18:53:06.076Z,86.18
2023-02-06T18:55:35.157Z,87.37
2023-02-06T18:58:02.588Z,87.48
2023-02-06T19:00:29.636Z,88.35
2023-02-06T19:02:58.013Z,89.21
2023-02-06T19:05:24.842Z,88.84
2023-02-06T19:07:53.100Z,88.56
2023-02-06T19:10:20.829Z,88.52
2023-02-06T19:12:47.692Z,87.87
2023-02-06T19:15:15.616Z,88.06
2023-02-06T19:17:42.776Z,87.88
2023-02-06T19:20:11.046Z,87.76
2023-02-06T19:22:38.571Z,86.71
2023-02-06T19:25:10.213Z,87.22
2023-02-06T19:27:38.522Z,88.63
2023-02-06T19:30:07.825Z,88.60
2023-02-06T19:32:35.023Z,88.17
2023-02-06T19:35:03.103Z,87.52
2023-02-06T19:37:30.978Z,87.65
2023-02-06T19:39:57.763Z,88.13
2023-02-06T19:42:24.418Z,87.80
2023-02-06T19:44:53.951Z,88.86
2023-02-06T19:47:21.021Z,88.81
2023-02-06T19:49:50.913Z,88.63
2023-02-06T19:52:17.589Z,88.78
2023-02-06T19:54:44.272Z,90.02
2023-02-06T19:57:11.017Z,89.55
2023-02-06T19:59:37.687Z,89.13
2023-02-06T20:02:04.424Z,88.74
2023-02-06T20:04:34.663Z,88.78
2023-02-06T20:07:02.029Z,89.67
2023-02-06T20:09:29.403Z,89.81
2023-02-06T20:11:56.804Z,90.39
2023-02-06T20:14:24.727Z,90.58
2023-02-06T20:16:51.650Z,89.47
2023-02-06T20:19:27.152Z,90.13
2023-02-06T20:21:59.120Z,89.34
2023-02-06T20:24:30.223Z,90.78
2023-02-06T20:27:00.764Z,89.36
2023-02-06T20:29:30.711Z,90.48
2023-02-06T20:31:57.533Z,89.34
2023-02-06T20:34:25.502Z,89.38
2023-02-06T20:36:55.252Z,89.37
2023-02-06T20:39:22.057Z,87.88
2023-02-06T20:41:50.354Z,87.71
2023-02-06T20:44:17.996Z,87.84
2023-02-06T20:46:45.275Z,86.57
2023-02-06T20:49:17.810Z,86.76
2023-02-06T20:51:44.761Z,86.83
2023-02-06T20:54:12.051Z,86.78
2023-02-06T20:56:39.918Z,86.09
2023-02-06T20:59:07.962Z,87.21
2023-02-06T21:01:35.163Z,86.34
2023-02-06T21:04:05.454Z,86.88
2023-02-06T21:06:32.586Z,86.53
2023-02-06T21:09:03.130Z,87.27
2023-02-06T21:11:34.121Z,86.15
2023-02-06T21:14:02.551Z,87.63
2023-02-06T21:16:32.932Z,86.64
2023-02-06T21:19:00.711Z,86.98
2023-02-06T21:21:27.746Z,86.53
2023-02-06T21:23:58.188Z,86.72
2023-02-06T21:26:25.791Z,86.42
2023-02-06T21:28:52.994Z,87.47
2023-02-06T21:31:23.400Z,87.39
2023-02-06T21:33:51.925Z,86.18
2023-02-06T21:36:21.038Z,86.00
2023-02-06T21:38:48.109Z,85.88
2023-02-06T21:41:18.185Z,85.69
2023-02-06T21:43:45.756Z,86.41
2023-02-06T21:46:13.272Z,86.62
2023-02-06T21:48:41.130Z,86.99
2023-02-06T21:51:13.480Z,86.19
2023-02-06T21:53:41.598Z,86.71
2023-02-06T21:56:13.734Z,86.97
2023-02-06T21:58:40.333Z,86.93
2023-02-06T22:01:08.917Z,87.39
2023-02-06T22:03:36.089Z,87.36
2023-02-06T22:06:11.737Z,87.23
2023-02-06T22:08:40.926Z,86.83
2023-02-06T22:11:16.849Z,87.93
2023-02-06T22:13:44.254Z,87.14
2023-02-06T22:16:13.181Z,87.54
2023-02-06T22:18:41.016Z,86.16
2023-02-06T22:21:16.719Z,85.61
2023-02-06T22:23:45.123Z,85.87
2023-02-06T22:26:14.158Z,85.56
2023-02-06T22:28:41.705Z,85.60
2023-02-06T22:31:12.182Z,85.95
2023-02-06T22:33:38.900Z,86.02
2023-02-06T22:36:07.739Z,86.69
2023-02-06T22:38:34.813Z,86.84
2023-02-06T22:41:03.729Z,86.71
2023-02-06T22:43:32.730Z,86.13
2023-02-06T22:45:59.562Z,86.51
2023-02-06T22:48:28.858Z,85.82
2023-02-06T22:50:55.582Z,85.94
2023-02-06T22:53:32.688Z,86.11
2023-02-06T22:56:23.329Z,85.55
2023-02-06T22:58:51.183Z,84.89
2023-02-06T23:01:20.462Z,85.49
2023-02-06T23:03:47.736Z,85.58
2023-02-06T23:06:15.767Z,85.94
2023-02-06T23:08:43.516Z,86.31
2023-02-06T23:11:12.115Z,87.45
2023-02-06T23:13:39.540Z,87.14
2023-02-06T23:16:07.476Z,87.12
2023-02-06T23:18:35.117Z,87.01
2023-02-06T23:21:10.864Z,87.87
2023-02-06T23:23:39.053Z,87.30
2023-02-06T23:26:11.127Z,87.29
2023-02-06T23:28:38.711Z,86.31
2023-02-06T23:31:06.485Z,88.30
2023-02-06T23:33:33.884Z,87.28
2023-02-06T23:36:06.773Z,86.66
2023-02-06T23:38:33.608Z,86.41
2023-02-06T23:41:12.866Z,85.73
2023-02-06T23:43:39.762Z,85.12
2023-02-06T23:46:12.219Z,85.02
2023-02-06T23:48:39.499Z,84.85
2023-02-06T23:51:06.492Z,84.98
2023-02-06T23:53:33.339Z,83.76
2023-02-06T23:56:00.118Z,85.05
2023-02-06T23:58:27.075Z,84.77
